createdAt,value
2023-05-13T00:00:25.121Z,94001.56
2023-05-13T00:02:53.053Z,94001.47
2023-05-13T00:05:21.275Z,93996.81
2023-05-13T00:07:49.289Z,93991.63
2023-05-13T00:14:44.497Z,94011.31
2023-05-13T00:17:12.617Z,94008.88
2023-05-13T00:19:40.995Z,94012.94
2023-05-13T00:22:09.186Z,94007.28
2023-05-13T00:28:26.929Z,94009.94
2023-05-13T00:30:54.777Z,94006.34
2023-05-13T00:33:22.805Z,94011.78
2023-05-13T00:35:50.691Z,94009.34
2023-05-13T00:38:18.599Z,94004.94
2023-05-13T00:40:47.431Z,94005.16
2023-05-13T00:43:15.700Z,94000.59
2023-05-13T00:45:43.688Z,93991.63
2023-05-13T00:48:11.943Z,93990.16
2023-05-13T00:50:42.490Z,93985.72
2023-05-13T00:53:13.150Z,93979.16
2023-05-13T00:55:45.576Z,93984.50
2023-05-13T00:58:14.079Z,93985.13
2023-05-13T01:00:55.215Z,93980.84
2023-05-13T01:03:35.102Z,93978.41
2023-05-13T01:06:17.381Z,93983.69
2023-05-13T01:09:26.701Z,93982.94
2023-05-13T01:11:57.508Z,93981.19
2023-05-13T01:14:35.721Z,93991.44
2023-05-13T01:17:24.716Z,93974.75
2023-05-13T01:19:58.044Z,93983.19
2023-05-13T01:22:26.384Z,93980.88
2023-05-13T01:24:54.385Z,93977.72
2023-05-13T01:27:22.540Z,93974.19
2023-05-13T01:29:50.868Z,93980.97
2023-05-13T01:32:25.031Z,93985.41
2023-05-13T01:34:53.813Z,93983.91
2023-05-13T01:37:23.167Z,93989.75
2023-05-13T01:39:52.129Z,93968.59
2023-05-13T01:42:20.179Z,93963.66
2023-05-13T01:44:48.424Z,93952.22
2023-05-13T01:47:16.967Z,93960.16
2023-05-13T01:49:44.922Z,93967.13
2023-05-13T01:52:13.072Z,93973.53
2023-05-13T01:54:40.944Z,93974.00
2023-05-13T01:57:12.440Z,93971.19
2023-05-13T01:59:40.514Z,93976.75
2023-05-13T02:02:08.636Z,93968.41
2023-05-13T02:04:36.602Z,93972.44
2023-05-13T02:07:04.862Z,93982.06
2023-05-13T02:09:33.965Z,93976.88
2023-05-13T02:12:01.991Z,93975.03
2023-05-13T02:14:30.465Z,93980.25
2023-05-13T02:16:58.477Z,93978.66
2023-05-13T02:19:26.690Z,93980.72
2023-05-13T02:21:54.538Z,93989.88
2023-05-13T02:24:22.709Z,93977.13
2023-05-13T02:26:50.588Z,93982.38
2023-05-13T02:29:18.513Z,93991.84
2023-05-13T02:31:46.453Z,93991.94
2023-05-13T02:34:14.950Z,93991.78
2023-05-13T02:36:42.844Z,93990.28
2023-05-13T02:39:10.776Z,93989.41
2023-05-13T02:41:39.254Z,93988.06
2023-05-13T02:44:07.284Z,93989.78
2023-05-13T02:46:35.822Z,93989.84
2023-05-13T02:49:03.937Z,93981.75
2023-05-13T02:54:33.050Z,93990.91
2023-05-13T02:57:01.323Z,93992.88
2023-05-13T02:59:29.320Z,93991.34
2023-05-13T03:01:57.776Z,93997.69
2023-05-13T03:04:25.709Z,93990.28
2023-05-13T03:06:53.676Z,93990.94
2023-05-13T03:09:21.595Z,93993.66
2023-05-13T03:11:49.645Z,93999.38
2023-05-13T03:14:17.599Z,94006.47
2023-05-13T03:16:45.566Z,93995.47
2023-05-13T03:19:15.822Z,94000.47
2023-05-13T03:21:43.857Z,93996.69
2023-05-13T03:24:15.202Z,93990.78
2023-05-13T03:26:43.314Z,93984.84
2023-05-13T03:29:11.405Z,93986.97
2023-05-13T03:31:40.055Z,93991.97
2023-05-13T03:34:08.768Z,93987.47
2023-05-13T03:36:37.895Z,93988.88
2023-05-13T03:39:06.354Z,93995.69
2023-05-13T03:41:35.203Z,93990.81
2023-05-13T03:44:03.823Z,94001.44
2023-05-13T03:46:32.276Z,94015.69
2023-05-13T03:49:00.461Z,94021.34
2023-05-13T03:51:29.980Z,94025.63
2023-05-13T03:53:58.264Z,94016.16
2023-05-13T03:56:26.366Z,94026.78
2023-05-13T03:58:54.469Z,94023.31
2023-05-13T04:01:22.498Z,94027.69
2023-05-13T04:03:50.518Z,94022.63
2023-05-13T04:06:18.847Z,94012.09
2023-05-13T04:08:49.583Z,94017.06
2023-05-13T04:11:17.525Z,94022.53
2023-05-13T04:13:46.248Z,94033.63
2023-05-13T04:16:14.708Z,94031.66
2023-05-13T04:18:42.980Z,94043.91
2023-05-13T04:21:11.682Z,94046.56
2023-05-13T04:23:39.609Z,94047.03
2023-05-13T04:26:07.488Z,94034.22
2023-05-13T04:28:35.619Z,94039.53
2023-05-13T04:31:04.046Z,94042.66
2023-05-13T04:33:34.046Z,94048.09
2023-05-13T04:36:02.088Z,94051.91
2023-05-13T04:38:31.666Z,94056.28
2023-05-13T04:41:00.017Z,94054.22
2023-05-13T04:43:36.960Z,94063.81
2023-05-13T04:46:05.094Z,94059.53
2023-05-13T04:48:33.494Z,94063.38
2023-05-13T04:51:01.880Z,94059.66
2023-05-13T04:53:31.293Z,94072.47
2023-05-13T04:56:02.653Z,94075.19
2023-05-13T04:58:31.557Z,94076.47
2023-05-13T05:00:59.665Z,94066.88
2023-05-13T05:03:27.604Z,94069.91
2023-05-13T05:05:55.879Z,94064.25
2023-05-13T05:08:25.232Z,94063.63
2023-05-13T05:10:53.865Z,94057.19
2023-05-13T05:13:22.172Z,94053.06
2023-05-13T05:15:50.682Z,94051.13
2023-05-13T05:18:18.752Z,94048.69
2023-05-13T05:20:49.453Z,94055.31
2023-05-13T05:23:19.863Z,94044.88
2023-05-13T05:25:49.824Z,94055.28
2023-05-13T05:28:21.988Z,94058.44
2023-05-13T05:30:49.944Z,94057.16
2023-05-13T05:33:27.483Z,94059.56
2023-05-13T05:35:55.577Z,94058.91
2023-05-13T05:38:27.023Z,94051.09
2023-05-13T05:40:57.073Z,94049.91
2023-05-13T05:43:26.533Z,94053.97
2023-05-13T05:45:54.518Z,94048.22
2023-05-13T05:48:23.620Z,94056.31
2023-05-13T05:50:51.639Z,94055.38
2023-05-13T05:53:26.637Z,94043.00
2023-05-13T05:55:55.159Z,94053.75
2023-05-13T05:58:23.865Z,94049.94
2023-05-13T06:00:52.221Z,94056.53
2023-05-13T06:03:21.602Z,94050.63
2023-05-13T06:05:49.859Z,94047.34
2023-05-13T06:08:19.656Z,94053.31
2023-05-13T06:10:47.567Z,94055.28
2023-05-13T06:13:16.250Z,94043.59
2023-05-13T06:15:44.280Z,94057.66
2023-05-13T06:18:12.901Z,94030.31
2023-05-13T06:20:41.178Z,94051.78
2023-05-13T06:23:10.986Z,94051.50
2023-05-13T06:25:39.150Z,94037.00
2023-05-13T06:28:09.068Z,94052.66
2023-05-13T06:30:38.271Z,94037.00
2023-05-13T06:33:06.616Z,94051.78
2023-05-13T06:35:34.910Z,94044.94
2023-05-13T06:38:06.298Z,94045.31
2023-05-13T06:40:35.642Z,94043.22
2023-05-13T06:43:04.042Z,94048.69
2023-05-13T06:45:38.968Z,94045.72
2023-05-13T06:48:07.131Z,94036.22
2023-05-13T06:50:35.313Z,94042.41
2023-05-13T06:53:03.778Z,94042.59
2023-05-13T06:55:32.256Z,94044.03
2023-05-13T06:58:00.181Z,94019.16
2023-05-13T07:00:28.144Z,94053.66
2023-05-13T07:02:56.121Z,94044.66
2023-05-13T07:05:24.262Z,94044.06
2023-05-13T07:07:53.956Z,94042.50
2023-05-13T07:10:22.220Z,94047.19
2023-05-13T07:12:50.368Z,94042.38
2023-05-13T07:15:18.637Z,94037.41
2023-05-13T07:17:46.660Z,94030.84
2023-05-13T07:20:14.915Z,94034.63
2023-05-13T07:22:42.977Z,94032.44
2023-05-13T07:25:11.565Z,94037.97
2023-05-13T07:27:39.569Z,94042.84
2023-05-13T07:30:08.488Z,94036.97
2023-05-13T07:32:37.349Z,94035.09
2023-05-13T07:35:06.684Z,94006.44
2023-05-13T07:37:35.059Z,94038.56
2023-05-13T07:40:04.795Z,94037.44
2023-05-13T07:42:33.314Z,94048.03
2023-05-13T07:45:01.481Z,94050.63
2023-05-13T07:47:31.817Z,94049.13
2023-05-13T07:50:00.770Z,94040.34
2023-05-13T07:52:28.913Z,94041.84
2023-05-13T07:54:56.990Z,94038.09
2023-05-13T07:57:24.938Z,94041.72
2023-05-13T07:59:54.613Z,94042.38
2023-05-13T08:02:23.117Z,94037.22
2023-05-13T08:04:53.737Z,94045.56
2023-05-13T08:07:21.774Z,94035.09
2023-05-13T08:09:49.656Z,94041.22
2023-05-13T08:12:17.630Z,94043.06
2023-05-13T08:14:47.555Z,94043.84
2023-05-13T08:17:18.468Z,94041.22
2023-05-13T08:19:46.722Z,94051.56
2023-05-13T08:22:14.840Z,94043.22
2023-05-13T08:24:43.516Z,94042.16
2023-05-13T08:27:13.034Z,94043.66
2023-05-13T08:29:40.973Z,94047.50
2023-05-13T08:32:09.112Z,94036.78
2023-05-13T08:34:37.162Z,94034.94
2023-05-13T08:37:05.602Z,93998.41
2023-05-13T08:39:34.578Z,94025.22
2023-05-13T08:42:04.459Z,94018.50
2023-05-13T08:44:36.589Z,94015.03
2023-05-13T08:47:16.341Z,94012.84
2023-05-13T08:49:46.929Z,94014.06
2023-05-13T08:52:15.304Z,94010.31
2023-05-13T08:54:44.584Z,94007.84
2023-05-13T08:57:13.240Z,93989.81
2023-05-13T08:59:41.358Z,94001.94
2023-05-13T09:02:11.033Z,93999.44
2023-05-13T09:04:41.629Z,93995.13
2023-05-13T09:07:11.900Z,93992.34
2023-05-13T09:09:41.286Z,93990.97
2023-05-13T09:12:09.570Z,93993.22
2023-05-13T09:14:38.981Z,93988.59
2023-05-13T09:17:08.296Z,93995.56
2023-05-13T09:19:36.880Z,93999.63
2023-05-13T09:22:05.427Z,93999.63
2023-05-13T09:24:33.802Z,93997.81
2023-05-13T09:27:01.834Z,93961.44
2023-05-13T09:29:29.869Z,94001.03
2023-05-13T09:32:00.516Z,93990.69
2023-05-13T09:34:30.191Z,94001.31
2023-05-13T09:37:06.627Z,94001.06
2023-05-13T09:39:40.161Z,93998.84
2023-05-13T09:42:19.296Z,93995.41
2023-05-13T09:44:48.543Z,93983.00
2023-05-13T09:47:18.210Z,93985.31
2023-05-13T09:49:56.883Z,93978.00
2023-05-13T09:52:25.251Z,93950.00
2023-05-13T09:54:56.545Z,93977.91
2023-05-13T09:57:24.732Z,93967.31
2023-05-13T09:59:58.535Z,93963.66
2023-05-13T10:02:28.568Z,93966.28
2023-05-13T10:04:57.466Z,93964.84
2023-05-13T10:07:26.189Z,93962.72
2023-05-13T10:09:57.600Z,93973.19
2023-05-13T10:12:26.918Z,93971.88
2023-05-13T10:14:56.287Z,93978.53
2023-05-13T10:17:26.328Z,93967.16
2023-05-13T10:19:55.256Z,93975.69
2023-05-13T10:22:32.130Z,93973.41
2023-05-13T10:25:03.284Z,93977.53
2023-05-13T10:27:34.283Z,93975.97
2023-05-13T10:30:06.192Z,93976.41
2023-05-13T10:32:37.406Z,93969.19
2023-05-13T10:35:21.007Z,93963.84
2023-05-13T10:37:55.256Z,93972.69
2023-05-13T10:40:47.629Z,93972.31
2023-05-13T10:43:29.147Z,93982.31
2023-05-13T10:46:08.535Z,93992.81
2023-05-13T10:48:41.050Z,93992.47
2023-05-13T10:51:13.931Z,94000.50
2023-05-13T10:53:53.605Z,94001.16
2023-05-13T10:56:24.662Z,94003.63
2023-05-13T10:58:59.442Z,94004.94
2023-05-13T11:01:31.999Z,94001.09
2023-05-13T11:04:03.741Z,94010.91
2023-05-13T11:06:39.009Z,94003.78
2023-05-13T11:09:29.294Z,94009.53
2023-05-13T11:12:01.838Z,94006.88
2023-05-13T11:14:32.933Z,94006.34
2023-05-13T11:17:01.416Z,94009.69
2023-05-13T11:19:32.237Z,94011.56
2023-05-13T11:22:19.447Z,94009.13
2023-05-13T11:25:09.413Z,93999.53
2023-05-13T11:27:43.353Z,93998.16
2023-05-13T11:30:26.589Z,93990.41
2023-05-13T11:32:57.428Z,93988.22
2023-05-13T11:35:25.970Z,93988.75
2023-05-13T11:38:00.141Z,93976.16
2023-05-13T11:40:32.368Z,93970.66
2023-05-13T11:43:01.528Z,93964.50
2023-05-13T11:45:30.612Z,93971.22
2023-05-13T11:47:59.613Z,93966.34
2023-05-13T11:50:35.579Z,93963.44
2023-05-13T11:53:04.127Z,93961.03
2023-05-13T11:55:37.234Z,93965.56
2023-05-13T11:58:05.625Z,93975.19
2023-05-13T12:00:35.225Z,93966.19
2023-05-13T12:03:12.221Z,93964.81
2023-05-13T12:05:40.901Z,93961.81
2023-05-13T12:08:10.976Z,93959.66
2023-05-13T12:10:48.550Z,93961.34
2023-05-13T12:13:17.518Z,93965.41
2023-05-13T12:15:46.359Z,93954.59
2023-05-13T12:18:15.034Z,93950.78
2023-05-13T12:20:43.502Z,93949.75
2023-05-13T12:23:14.584Z,93958.88
2023-05-13T12:25:48.540Z,93948.31
2023-05-13T12:28:21.664Z,93953.06
2023-05-13T12:31:14.697Z,93956.69
2023-05-13T12:33:44.821Z,93952.69
2023-05-13T12:36:34.072Z,93959.59
2023-05-13T12:39:11.903Z,93935.03
2023-05-13T12:41:42.758Z,93941.47
2023-05-13T12:44:15.370Z,93940.47
2023-05-13T12:46:55.756Z,93939.06
2023-05-13T12:49:24.856Z,93938.00
2023-05-13T12:51:53.220Z,93932.31
2023-05-13T12:54:22.146Z,93917.38
2023-05-13T12:56:50.577Z,93928.38
2023-05-13T12:59:19.558Z,93930.16
2023-05-13T13:01:50.196Z,93931.91
2023-05-13T13:04:19.910Z,93934.94
2023-05-13T13:06:48.576Z,93935.59
2023-05-13T13:09:17.064Z,93926.19
2023-05-13T13:11:45.360Z,93933.22
2023-05-13T13:14:13.954Z,93925.94
2023-05-13T13:16:43.259Z,93933.34
2023-05-13T13:19:11.738Z,93926.66
2023-05-13T13:21:40.376Z,93924.47
2023-05-13T13:24:09.224Z,93925.97
2023-05-13T13:26:37.781Z,93922.69
2023-05-13T13:29:05.836Z,93911.22
2023-05-13T13:31:34.558Z,93902.44
2023-05-13T13:34:05.225Z,93914.75
2023-05-13T13:36:33.587Z,93908.31
2023-05-13T13:39:02.197Z,93898.75
2023-05-13T13:41:30.855Z,93908.31
2023-05-13T13:43:59.014Z,93910.78
2023-05-13T13:46:27.549Z,93914.84
2023-05-13T13:48:55.855Z,93911.47
2023-05-13T13:51:24.281Z,93908.53
2023-05-13T13:53:52.875Z,93908.72
2023-05-13T13:56:21.431Z,93907.06
2023-05-13T13:58:49.858Z,93913.91
2023-05-13T14:01:20.153Z,93917.78
2023-05-13T14:03:50.789Z,93915.91
2023-05-13T14:06:20.301Z,93916.84
2023-05-13T14:08:51.319Z,93920.88
2023-05-13T14:11:19.942Z,93923.06
2023-05-13T14:13:48.220Z,93914.06
2023-05-13T14:16:16.788Z,93917.31
2023-05-13T14:18:45.381Z,93911.75
2023-05-13T14:21:14.056Z,93911.72
2023-05-13T14:23:42.401Z,93918.16
2023-05-13T14:26:12.179Z,93914.69
2023-05-13T14:28:40.726Z,93918.97
2023-05-13T14:31:09.278Z,93917.09
2023-05-13T14:33:37.886Z,93924.25
2023-05-13T14:36:06.723Z,93918.94
2023-05-13T14:38:35.174Z,93922.16
2023-05-13T14:41:03.771Z,93913.72
2023-05-13T14:43:32.094Z,93916.00
2023-05-13T14:46:00.484Z,93913.31
2023-05-13T14:48:29.111Z,93902.91
2023-05-13T14:50:57.422Z,93906.06
2023-05-13T14:53:25.847Z,93905.66
2023-05-13T14:55:55.306Z,93902.94
2023-05-13T14:58:24.153Z,93906.44
2023-05-13T15:00:52.549Z,93902.16
2023-05-13T15:03:20.916Z,93908.06
2023-05-13T15:05:50.618Z,93913.88
2023-05-13T15:08:19.856Z,93915.47
2023-05-13T15:10:48.410Z,93916.31
2023-05-13T15:13:19.353Z,93919.59
2023-05-13T15:15:47.859Z,93932.16
2023-05-13T15:18:16.364Z,93934.94
2023-05-13T15:20:45.793Z,93926.09
2023-05-13T15:23:15.033Z,93925.41
2023-05-13T15:25:43.430Z,93930.84
2023-05-13T15:28:12.159Z,93919.53
2023-05-13T15:30:40.621Z,93916.84
2023-05-13T15:33:08.951Z,93921.03
2023-05-13T15:35:37.314Z,93918.50
2023-05-13T15:38:05.786Z,93915.75
2023-05-13T15:40:34.308Z,93923.56
2023-05-13T15:43:02.698Z,93919.56
2023-05-13T15:45:31.520Z,93938.09
2023-05-13T15:48:00.169Z,93934.09
2023-05-13T15:50:28.804Z,93941.63
2023-05-13T15:52:57.188Z,93945.56
2023-05-13T15:55:26.703Z,93931.03
2023-05-13T15:57:55.155Z,93932.00
2023-05-13T16:00:24.034Z,93942.50
2023-05-13T16:02:52.714Z,93941.63
2023-05-13T16:05:21.334Z,93939.25
2023-05-13T16:07:50.188Z,93936.78
2023-05-13T16:10:19.299Z,93951.00
2023-05-13T16:12:47.778Z,93949.13
2023-05-13T16:15:16.085Z,93947.22
2023-05-13T16:17:44.244Z,93951.34
2023-05-13T16:20:13.801Z,93950.81
2023-05-13T16:22:42.245Z,93954.56
2023-05-13T16:25:12.049Z,93969.47
2023-05-13T16:27:43.402Z,93978.66
2023-05-13T16:30:12.728Z,93971.69
2023-05-13T16:32:41.259Z,93968.22
2023-05-13T16:35:12.307Z,93976.81
2023-05-13T16:37:40.732Z,93975.50
2023-05-13T16:40:09.827Z,93979.31
2023-05-13T16:42:38.351Z,93974.13
2023-05-13T16:45:07.549Z,93969.25
2023-05-13T16:47:36.116Z,93980.63
2023-05-13T16:50:04.951Z,93986.31
2023-05-13T16:52:34.470Z,93997.13
2023-05-13T16:55:03.455Z,94005.19
2023-05-13T16:57:32.082Z,93995.19
2023-05-13T17:00:00.523Z,94003.59
2023-05-13T17:02:29.091Z,93999.78
2023-05-13T17:04:57.489Z,94001.09
2023-05-13T17:07:26.105Z,94011.56
2023-05-13T17:09:54.523Z,94007.13
2023-05-13T17:12:23.017Z,94008.75
2023-05-13T17:14:52.160Z,94007.72
2023-05-13T17:17:21.060Z,93997.81
2023-05-13T17:19:49.796Z,94006.13
2023-05-13T17:22:18.338Z,94001.53
2023-05-13T17:24:46.776Z,94003.97
2023-05-13T17:27:15.068Z,93972.53
2023-05-13T17:29:43.667Z,94008.00
2023-05-13T17:32:12.505Z,94001.81
2023-05-13T17:34:41.178Z,94008.25
2023-05-13T17:37:09.586Z,94001.81
2023-05-13T17:39:38.123Z,94017.41
2023-05-13T17:42:06.726Z,94024.91
2023-05-13T17:44:34.725Z,93984.38
2023-05-13T17:47:02.986Z,94018.22
2023-05-13T17:49:31.381Z,94016.09
2023-05-13T17:51:59.719Z,94011.22
2023-05-13T17:54:28.137Z,94020.63
2023-05-13T17:56:56.480Z,94020.09
2023-05-13T17:59:24.678Z,94017.66
2023-05-13T18:01:53.205Z,94014.72
2023-05-13T18:04:21.896Z,94014.44
2023-05-13T18:06:50.524Z,94017.16
2023-05-13T18:09:18.977Z,94029.75
2023-05-13T18:11:47.354Z,94031.38
2023-05-13T18:14:15.984Z,94025.47
2023-05-13T18:16:44.566Z,94024.66
2023-05-13T18:19:13.226Z,94032.19
2023-05-13T18:21:41.626Z,94023.03
2023-05-13T18:24:10.222Z,94034.84
2023-05-13T18:26:38.650Z,94037.00
2023-05-13T18:29:07.383Z,94038.09
2023-05-13T18:31:35.923Z,94026.53
2023-05-13T18:34:04.175Z,94025.91
2023-05-13T18:36:33.139Z,94029.69
2023-05-13T18:39:01.495Z,94021.38
2023-05-13T18:41:30.030Z,94016.81
2023-05-13T18:43:58.361Z,94018.44
2023-05-13T18:46:27.071Z,94013.34
2023-05-13T18:48:55.504Z,94019.78
2023-05-13T18:51:24.094Z,94020.84
2023-05-13T18:53:52.496Z,94010.91
2023-05-13T18:56:24.385Z,94018.16
2023-05-13T18:58:53.161Z,94020.59
2023-05-13T19:01:21.672Z,94023.25
2023-05-13T19:03:51.267Z,94016.00
2023-05-13T19:06:19.693Z,94015.09
2023-05-13T19:08:48.295Z,94018.59
2023-05-13T19:11:16.692Z,94018.28
2023-05-13T19:13:47.518Z,94012.41
2023-05-13T19:16:16.792Z,94020.47
2023-05-13T19:18:44.981Z,94012.16
2023-05-13T19:21:13.404Z,94015.50
2023-05-13T19:23:41.852Z,94015.56
2023-05-13T19:26:12.893Z,94020.13
2023-05-13T19:28:44.325Z,94022.28
2023-05-13T19:31:12.985Z,94041.38
2023-05-13T19:33:41.596Z,94051.56
2023-05-13T19:36:11.136Z,94047.28
2023-05-13T19:38:39.693Z,94051.31
2023-05-13T19:41:07.895Z,94050.13
2023-05-13T19:43:36.309Z,94046.72
2023-05-13T19:46:04.792Z,94049.16
2023-05-13T19:48:33.209Z,94050.75
2023-05-13T19:51:01.966Z,94045.13
2023-05-13T19:53:30.504Z,94043.00
2023-05-13T19:55:59.051Z,94045.13
2023-05-13T19:58:27.498Z,94035.22
2023-05-13T20:00:56.621Z,94042.97
2023-05-13T20:03:24.951Z,94045.09
2023-05-13T20:05:54.325Z,94039.72
2023-05-13T20:08:23.269Z,94035.41
2023-05-13T20:10:52.497Z,94040.47
2023-05-13T20:13:21.084Z,94039.13
2023-05-13T20:15:49.491Z,94043.16
2023-05-13T20:18:18.057Z,94041.22
2023-05-13T20:20:47.471Z,94044.75
2023-05-13T20:23:15.786Z,94043.91
2023-05-13T20:25:46.135Z,94046.88
2023-05-13T20:28:14.576Z,94035.50
2023-05-13T20:30:43.277Z,94045.22
2023-05-13T20:33:11.982Z,94041.97
2023-05-13T20:35:40.266Z,94027.47
2023-05-13T20:38:08.538Z,94040.56
2023-05-13T20:40:37.006Z,94045.09
2023-05-13T20:43:07.502Z,94049.13
2023-05-13T20:45:39.792Z,94036.53
2023-05-13T20:48:08.252Z,94033.84
2023-05-13T20:50:37.512Z,94032.25
2023-05-13T20:53:05.723Z,94027.69
2023-05-13T20:55:33.687Z,94031.63
2023-05-13T20:58:01.805Z,94025.22
2023-05-13T21:00:29.878Z,94029.25
2023-05-13T21:02:58.227Z,94030.28
2023-05-13T21:05:26.483Z,94036.91
2023-05-13T21:07:54.458Z,94017.59
2023-05-13T21:10:23.011Z,94028.66
2023-05-13T21:12:51.950Z,94033.97
2023-05-13T21:15:20.182Z,94020.03
2023-05-13T21:17:48.180Z,94029.44
2023-05-13T21:20:16.726Z,94032.94
2023-05-13T21:22:44.777Z,94003.22
2023-05-13T21:25:13.478Z,94033.91
2023-05-13T21:27:41.562Z,94029.41
2023-05-13T21:30:10.518Z,94039.34
2023-05-13T21:32:38.499Z,94044.38
2023-05-13T21:35:07.052Z,94035.88
2023-05-13T21:37:35.116Z,94046.59
2023-05-13T21:40:03.392Z,94054.38
2023-05-13T21:42:31.670Z,94045.34
2023-05-13T21:44:59.567Z,94047.53
2023-05-13T21:47:29.720Z,94045.88
2023-05-13T21:49:58.506Z,94053.97
2023-05-13T21:52:26.557Z,94049.44
2023-05-13T21:54:54.436Z,94058.25
2023-05-13T21:57:22.293Z,94049.19
2023-05-13T21:59:50.215Z,94053.72
2023-05-13T22:02:18.208Z,94060.88
2023-05-13T22:04:46.569Z,94055.66
2023-05-13T22:07:14.656Z,94051.47
2023-05-13T22:09:42.558Z,94055.56
2023-05-13T22:12:10.517Z,94045.84
2023-05-13T22:14:38.466Z,94038.38
2023-05-13T22:17:09.703Z,94027.38
2023-05-13T22:19:38.147Z,94042.94
2023-05-13T22:22:06.218Z,94030.31
2023-05-13T22:24:34.268Z,94043.66
2023-05-13T22:27:02.247Z,94036.16
2023-05-13T22:29:30.531Z,94030.88
2023-05-13T22:31:58.591Z,94025.72
2023-05-13T22:34:26.828Z,94024.81
2023-05-13T22:36:54.723Z,94026.88
2023-05-13T22:39:22.704Z,94022.97
2023-05-13T22:41:50.799Z,94026.75
2023-05-13T22:44:18.800Z,94030.84
2023-05-13T22:46:46.802Z,94025.09
2023-05-13T22:49:14.792Z,94031.03
2023-05-13T22:51:43.398Z,94031.84
2023-05-13T22:54:11.284Z,94026.38
2023-05-13T22:56:39.366Z,94037.13
2023-05-13T22:59:07.349Z,94031.41
2023-05-13T23:01:35.303Z,94036.44
2023-05-13T23:04:06.023Z,94028.47
2023-05-13T23:06:34.026Z,94024.44
2023-05-13T23:09:01.888Z,94027.94
2023-05-13T23:11:29.904Z,94030.16
2023-05-13T23:13:58.162Z,94030.38
2023-05-13T23:16:26.253Z,94031.69
2023-05-13T23:18:55.706Z,94026.50
2023-05-13T23:21:23.711Z,94026.44
2023-05-13T23:23:52.262Z,94025.84
2023-05-13T23:26:20.271Z,94028.34
2023-05-13T23:28:48.213Z,94017.66
2023-05-13T23:31:16.871Z,94013.81
2023-05-13T23:33:44.745Z,94017.59
2023-05-13T23:36:12.802Z,94021.72
2023-05-13T23:38:41.019Z,94002.72
2023-05-13T23:41:09.005Z,94011.69
2023-05-13T23:43:36.916Z,94017.50
2023-05-13T23:46:04.984Z,94016.47
2023-05-13T23:48:32.822Z,94007.38
2023-05-13T23:51:00.772Z,94005.81
2023-05-13T23:53:28.758Z,94003.66
2023-05-13T23:55:57.430Z,93993.06
2023-05-13T23:58:25.605Z,94001.44
